Ravenden, Arkansas
Current Conditions -  °F | °C
As of 10:15 AM on Wednesday 22 Oct 2014 (Local Time) from KARG Reporting Station
Clear Clear  
Wind Chill: 55°   Ceiling: Unl
Heat Index: 55°   Visibility: 8mi
Dew Point: 39°   Wind: 8mph
Humidity: 54%   Direction: 60°ENE
Pressure: 30.29"   Gusts: NA
Location:  36.23°N, 91.25°W
Report Text: KARG 221515Z AUTO 06007KT 8SM CLR 13/04 A3029 RMK AO1
Loading
Personal Weather Stations






























Interactive Weather Map
Tropical Storm Tracking
New forecast layout! Learn more

10-Day Weather Forecast

Advertisements
Track Severe Weather on mobile